sensor_id;sensor_type;location;lat;lon;timestamp;temperature;humidity
63960;DHT22;50136;51.374;0.096;2022-12-24T00:00:55;9.60;99.90
63960;DHT22;50136;51.374;0.096;2022-12-24T00:10:57;9.60;99.90
63960;DHT22;50136;51.374;0.096;2022-12-24T00:21:00;9.70;99.90
63960;DHT22;50136;51.374;0.096;2022-12-24T00:31:05;9.80;99.90
63960;DHT22;50136;51.374;0.096;2022-12-24T00:41:09;9.70;99.90
63960;DHT22;50136;51.374;0.096;2022-12-24T00:51:11;9.60;99.90
63960;DHT22;50136;51.374;0.096;2022-12-24T01:01:14;9.50;99.90
63960;DHT22;50136;51.374;0.096;2022-12-24T01:11:17;9.40;99.90
63960;DHT22;50136;51.374;0.096;2022-12-24T01:21:20;9.40;99.90
63960;DHT22;50136;51.374;0.096;2022-12-24T01:31:21;9.40;99.90
63960;DHT22;50136;51.374;0.096;2022-12-24T01:41:25;9.40;99.90
63960;DHT22;50136;51.374;0.096;2022-12-24T01:51:28;9.30;99.90
63960;DHT22;50136;51.374;0.096;2022-12-24T02:01:32;9.30;99.90
63960;DHT22;50136;51.374;0.096;2022-12-24T02:11:35;9.30;99.90
63960;DHT22;50136;51.374;0.096;2022-12-24T02:31:59;9.50;99.90
63960;DHT22;50136;51.374;0.096;2022-12-24T02:42:02;9.50;99.90
63960;DHT22;50136;51.374;0.096;2022-12-24T02:52:07;9.30;99.90
63960;DHT22;50136;51.374;0.096;2022-12-24T03:02:11;9.30;99.90
63960;DHT22;50136;51.374;0.096;2022-12-24T03:12:18;9.30;99.90
63960;DHT22;50136;51.374;0.096;2022-12-24T03:22:21;9.20;99.90
63960;DHT22;50136;51.374;0.096;2022-12-24T03:32:28;9.20;99.90
63960;DHT22;50136;51.374;0.096;2022-12-24T03:42:30;9.20;99.90
63960;DHT22;50136;51.374;0.096;2022-12-24T03:52:33;9.10;99.90
63960;DHT22;50136;51.374;0.096;2022-12-24T04:02:35;9.00;99.90
63960;DHT22;50136;51.374;0.096;2022-12-24T04:12:38;8.90;99.90
63960;DHT22;50136;51.374;0.096;2022-12-24T04:22:40;8.90;99.90
63960;DHT22;50136;51.374;0.096;2022-12-24T04:32:43;8.80;99.90
63960;DHT22;50136;51.374;0.096;2022-12-24T04:42:45;8.80;99.90
63960;DHT22;50136;51.374;0.096;2022-12-24T04:52:48;8.70;99.90
63960;DHT22;50136;51.374;0.096;2022-12-24T05:02:50;8.60;99.90
63960;DHT22;50136;51.374;0.096;2022-12-24T05:12:53;8.50;99.90
63960;DHT22;50136;51.374;0.096;2022-12-24T05:22:55;8.40;99.90
63960;DHT22;50136;51.374;0.096;2022-12-24T05:32:58;8.30;99.90
63960;DHT22;50136;51.374;0.096;2022-12-24T05:43:00;8.30;99.90
63960;DHT22;50136;51.374;0.096;2022-12-24T05:53:03;8.20;99.90
63960;DHT22;50136;51.374;0.096;2022-12-24T06:03:05;8.10;99.90
63960;DHT22;50136;51.374;0.096;2022-12-24T06:13:08;8.00;99.90
63960;DHT22;50136;51.374;0.096;2022-12-24T06:23:10;8.00;99.90
63960;DHT22;50136;51.374;0.096;2022-12-24T06:33:13;8.00;99.90
63960;DHT22;50136;51.374;0.096;2022-12-24T06:43:16;7.90;99.90
63960;DHT22;50136;51.374;0.096;2022-12-24T06:53:19;7.80;99.90
63960;DHT22;50136;51.374;0.096;2022-12-24T07:03:21;7.60;99.90
63960;DHT22;50136;51.374;0.096;2022-12-24T07:13:24;7.60;99.90
63960;DHT22;50136;51.374;0.096;2022-12-24T07:23:26;7.70;99.90
63960;DHT22;50136;51.374;0.096;2022-12-24T07:33:29;7.60;99.90
63960;DHT22;50136;51.374;0.096;2022-12-24T07:43:31;7.50;99.90
63960;DHT22;50136;51.374;0.096;2022-12-24T07:53:34;7.40;99.90
63960;DHT22;50136;51.374;0.096;2022-12-24T08:03:40;7.30;99.90
63960;DHT22;50136;51.374;0.096;2022-12-24T08:14:16;7.20;99.90
63960;DHT22;50136;51.374;0.096;2022-12-24T08:24:17;7.10;99.90
63960;DHT22;50136;51.374;0.096;2022-12-24T08:34:20;7.00;99.90
63960;DHT22;50136;51.374;0.096;2022-12-24T08:44:22;6.90;99.90
63960;DHT22;50136;51.374;0.096;2022-12-24T08:54:25;6.90;99.90
63960;DHT22;50136;51.374;0.096;2022-12-24T09:04:27;6.80;99.90
63960;DHT22;50136;51.374;0.096;2022-12-24T09:14:30;6.70;99.90
63960;DHT22;50136;51.374;0.096;2022-12-24T09:24:32;6.70;99.90
63960;DHT22;50136;51.374;0.096;2022-12-24T09:34:35;6.80;99.90
63960;DHT22;50136;51.374;0.096;2022-12-24T09:44:39;7.10;99.90
63960;DHT22;50136;51.374;0.096;2022-12-24T09:54:43;7.40;99.90
63960;DHT22;50136;51.374;0.096;2022-12-24T10:04:50;7.70;99.90
63960;DHT22;50136;51.374;0.096;2022-12-24T10:14:56;8.00;99.90
63960;DHT22;50136;51.374;0.096;2022-12-24T10:25:01;8.30;99.90
63960;DHT22;50136;51.374;0.096;2022-12-24T10:35:07;8.40;99.90
63960;DHT22;50136;51.374;0.096;2022-12-24T10:45:16;8.70;99.90
63960;DHT22;50136;51.374;0.096;2022-12-24T10:55:23;8.80;99.90
63960;DHT22;50136;51.374;0.096;2022-12-24T11:05:29;9.10;99.90
63960;DHT22;50136;51.374;0.096;2022-12-24T11:15:32;9.40;99.90
63960;DHT22;50136;51.374;0.096;2022-12-24T11:25:36;9.50;99.90
63960;DHT22;50136;51.374;0.096;2022-12-24T11:35:41;9.70;99.90
63960;DHT22;50136;51.374;0.096;2022-12-24T11:45:47;9.90;99.90
63960;DHT22;50136;51.374;0.096;2022-12-24T11:55:51;10.00;99.90
63960;DHT22;50136;51.374;0.096;2022-12-24T12:05:54;10.20;99.90
63960;DHT22;50136;51.374;0.096;2022-12-24T12:16:00;10.40;99.90
63960;DHT22;50136;51.374;0.096;2022-12-24T12:26:06;10.60;99.90
63960;DHT22;50136;51.374;0.096;2022-12-24T12:36:12;10.70;99.90
63960;DHT22;50136;51.374;0.096;2022-12-24T12:46:15;10.90;99.90
63960;DHT22;50136;51.374;0.096;2022-12-24T12:56:25;11.10;99.90
63960;DHT22;50136;51.374;0.096;2022-12-24T13:16:53;10.90;99.90
63960;DHT22;50136;51.374;0.096;2022-12-24T13:27:00;10.90;99.90
63960;DHT22;50136;51.374;0.096;2022-12-24T13:37:04;10.90;99.90
63960;DHT22;50136;51.374;0.096;2022-12-24T13:47:19;10.90;99.90
63960;DHT22;50136;51.374;0.096;2022-12-24T13:57:31;10.90;99.90
63960;DHT22;50136;51.374;0.096;2022-12-24T14:07:34;10.90;99.90
63960;DHT22;50136;51.374;0.096;2022-12-24T14:17:37;11.00;99.90
63960;DHT22;50136;51.374;0.096;2022-12-24T14:27:42;11.00;99.90
63960;DHT22;50136;51.374;0.096;2022-12-24T14:37:46;11.00;99.90
63960;DHT22;50136;51.374;0.096;2022-12-24T14:47:50;11.00;99.90
63960;DHT22;50136;51.374;0.096;2022-12-24T15:08:13;10.70;99.90
63960;DHT22;50136;51.374;0.096;2022-12-24T15:18:17;10.70;99.90
63960;DHT22;50136;51.374;0.096;2022-12-24T15:28:22;10.60;99.90
63960;DHT22;50136;51.374;0.096;2022-12-24T15:38:26;10.50;99.90
63960;DHT22;50136;51.374;0.096;2022-12-24T15:48:31;10.40;99.90
63960;DHT22;50136;51.374;0.096;2022-12-24T15:58:34;10.20;99.90
63960;DHT22;50136;51.374;0.096;2022-12-24T16:08:37;10.00;99.90
63960;DHT22;50136;51.374;0.096;2022-12-24T16:18:41;10.00;99.90
63960;DHT22;50136;51.374;0.096;2022-12-24T16:28:45;9.90;99.90
63960;DHT22;50136;51.374;0.096;2022-12-24T16:38:47;9.70;99.90
63960;DHT22;50136;51.374;0.096;2022-12-24T16:48:50;9.60;99.90
63960;DHT22;50136;51.374;0.096;2022-12-24T16:58:51;9.70;99.90
63960;DHT22;50136;51.374;0.096;2022-12-24T17:08:55;9.90;99.90
63960;DHT22;50136;51.374;0.096;2022-12-24T17:18:56;10.10;99.90
63960;DHT22;50136;51.374;0.096;2022-12-24T17:29:00;10.10;99.90
63960;DHT22;50136;51.374;0.096;2022-12-24T17:39:01;10.20;99.90
63960;DHT22;50136;51.374;0.096;2022-12-24T17:49:05;10.20;99.90
63960;DHT22;50136;51.374;0.096;2022-12-24T17:59:06;10.40;99.90
63960;DHT22;50136;51.374;0.096;2022-12-24T18:09:10;10.50;99.90
63960;DHT22;50136;51.374;0.096;2022-12-24T18:19:11;10.50;99.90
63960;DHT22;50136;51.374;0.096;2022-12-24T18:29:15;10.50;99.90
63960;DHT22;50136;51.374;0.096;2022-12-24T18:39:17;10.60;99.90
63960;DHT22;50136;51.374;0.096;2022-12-24T18:49:20;10.80;99.90
63960;DHT22;50136;51.374;0.096;2022-12-24T18:59:22;10.70;99.90
63960;DHT22;50136;51.374;0.096;2022-12-24T19:09:25;10.70;99.90
63960;DHT22;50136;51.374;0.096;2022-12-24T19:19:27;10.70;99.90
63960;DHT22;50136;51.374;0.096;2022-12-24T19:29:30;10.60;99.90
63960;DHT22;50136;51.374;0.096;2022-12-24T19:39:32;10.60;99.90
63960;DHT22;50136;51.374;0.096;2022-12-24T19:49:35;10.60;99.90
63960;DHT22;50136;51.374;0.096;2022-12-24T19:59:37;10.70;99.90
63960;DHT22;50136;51.374;0.096;2022-12-24T20:09:40;10.60;99.90
63960;DHT22;50136;51.374;0.096;2022-12-24T20:19:42;10.70;99.90
63960;DHT22;50136;51.374;0.096;2022-12-24T20:29:45;10.70;99.90
63960;DHT22;50136;51.374;0.096;2022-12-24T20:39:47;10.70;99.90
63960;DHT22;50136;51.374;0.096;2022-12-24T20:49:50;10.70;99.90
63960;DHT22;50136;51.374;0.096;2022-12-24T20:59:52;10.60;99.90
63960;DHT22;50136;51.374;0.096;2022-12-24T21:09:55;10.60;99.90
63960;DHT22;50136;51.374;0.096;2022-12-24T21:19:57;10.60;99.90
63960;DHT22;50136;51.374;0.096;2022-12-24T21:30:00;10.50;99.90
63960;DHT22;50136;51.374;0.096;2022-12-24T21:40:03;10.50;99.90
63960;DHT22;50136;51.374;0.096;2022-12-24T21:50:08;10.60;99.90
63960;DHT22;50136;51.374;0.096;2022-12-24T22:00:10;10.70;99.90
63960;DHT22;50136;51.374;0.096;2022-12-24T22:10:13;10.80;99.90
63960;DHT22;50136;51.374;0.096;2022-12-24T22:20:15;10.80;99.90
63960;DHT22;50136;51.374;0.096;2022-12-24T22:30:18;10.80;99.90
63960;DHT22;50136;51.374;0.096;2022-12-24T22:40:20;10.80;99.90
63960;DHT22;50136;51.374;0.096;2022-12-24T22:50:23;10.90;99.90
63960;DHT22;50136;51.374;0.096;2022-12-24T23:00:35;10.90;99.90
63960;DHT22;50136;51.374;0.096;2022-12-24T23:10:39;10.90;99.90
63960;DHT22;50136;51.374;0.096;2022-12-24T23:20:42;10.90;99.90
63960;DHT22;50136;51.374;0.096;2022-12-24T23:30:45;11.00;99.90
63960;DHT22;50136;51.374;0.096;2022-12-24T23:40:56;11.00;99.90
63960;DHT22;50136;51.374;0.096;2022-12-24T23:51:03;11.00;99.90
